createdAt,value
2023-02-22T00:01:34.046Z,100844.16
2023-02-22T00:04:02.096Z,100760.63
2023-02-22T00:06:29.438Z,100745.75
2023-02-22T00:08:55.823Z,100750.97
2023-02-22T00:11:22.206Z,100806.16
2023-02-22T00:13:50.488Z,100829.03
2023-02-22T00:16:23.956Z,100807.97
2023-02-22T00:18:50.868Z,100787.34
2023-02-22T00:21:18.324Z,100800.78
2023-02-22T00:23:46.904Z,100700.91
2023-02-22T00:26:18.272Z,100823.38
2023-02-22T00:28:49.968Z,100795.69
2023-02-22T00:31:16.975Z,100756.09
2023-02-22T00:33:44.034Z,100782.97
2023-02-22T00:36:12.822Z,100789.63
2023-02-22T00:38:41.783Z,100792.25
2023-02-22T00:41:08.833Z,100809.41
2023-02-22T00:43:35.381Z,100822.38
2023-02-22T00:46:01.858Z,100806.09
2023-02-22T00:48:28.540Z,100771.66
2023-02-22T00:50:55.239Z,100706.78
2023-02-22T00:53:23.435Z,100800.97
2023-02-22T00:55:50.409Z,100792.47
2023-02-22T00:58:16.836Z,100730.28
2023-02-22T01:00:43.469Z,100816.59
2023-02-22T01:03:13.128Z,100769.94
2023-02-22T01:05:39.640Z,100638.94
2023-02-22T01:08:08.774Z,100809.59
2023-02-22T01:10:36.097Z,100789.63
2023-02-22T01:13:08.430Z,100704.28
2023-02-22T01:15:36.696Z,100780.16
2023-02-22T01:18:05.096Z,100672.28
2023-02-22T01:20:32.782Z,100787.84
2023-02-22T01:23:03.464Z,100686.31
2023-02-22T01:25:31.786Z,100695.56
2023-02-22T01:28:00.817Z,100612.59
2023-02-22T01:30:30.363Z,100534.28
2023-02-22T01:32:57.973Z,100660.81
2023-02-22T01:35:28.076Z,100672.88
2023-02-22T01:37:55.365Z,100733.47
2023-02-22T01:40:34.901Z,100717.72
2023-02-22T01:43:05.030Z,100653.81
2023-02-22T01:45:32.848Z,100757.34
2023-02-22T01:48:18.079Z,100712.53
2023-02-22T01:50:52.628Z,100742.69
2023-02-22T01:53:21.606Z,100707.25
2023-02-22T01:55:49.087Z,100600.53
2023-02-22T01:58:18.961Z,100621.31
2023-02-22T02:00:45.611Z,100629.81
2023-02-22T02:03:19.191Z,100669.44
2023-02-22T02:12:35.809Z,100707.44
2023-02-22T02:15:32.685Z,100750.53
2023-02-22T02:18:02.075Z,100643.81
2023-02-22T02:20:50.402Z,100746.19
2023-02-22T02:23:44.808Z,100745.44
2023-02-22T02:26:49.106Z,100723.13
2023-02-22T02:29:53.195Z,100742.88
2023-02-22T02:32:25.520Z,100740.31
2023-02-22T02:35:00.471Z,100735.16
2023-02-22T02:37:36.951Z,100712.81
2023-02-22T02:40:11.735Z,100730.13
2023-02-22T02:42:44.419Z,100729.84
2023-02-22T02:45:21.832Z,100592.94
2023-02-22T02:47:58.537Z,100584.06
2023-02-22T02:58:08.193Z,100728.94
2023-02-22T03:00:39.610Z,100570.25
2023-02-22T03:03:37.219Z,100717.75
2023-02-22T03:06:21.520Z,100712.47
2023-02-22T03:09:12.801Z,100717.06
2023-02-22T03:12:19.170Z,100699.84
2023-02-22T03:18:45.113Z,100618.16
2023-02-22T03:21:17.570Z,100714.81
2023-02-22T03:23:51.128Z,100722.78
2023-02-22T03:26:24.362Z,100684.06
2023-02-22T03:28:55.841Z,100718.91
2023-02-22T03:31:29.829Z,100543.03
2023-02-22T03:34:22.387Z,100722.19
2023-02-22T03:37:14.549Z,100637.50
2023-02-22T03:39:43.346Z,100708.38
2023-02-22T03:42:16.322Z,100676.22
2023-02-22T03:44:45.814Z,100604.00
2023-02-22T03:47:18.318Z,100665.81
2023-02-22T03:49:59.788Z,100702.06
2023-02-22T03:52:26.289Z,100591.97
2023-02-22T03:54:55.996Z,100692.97
2023-02-22T03:57:29.358Z,100694.53
2023-02-22T03:59:55.981Z,100593.69
2023-02-22T04:02:23.695Z,100589.03
2023-02-22T04:04:50.093Z,100695.09
2023-02-22T04:07:17.449Z,100683.56
2023-02-22T04:12:40.674Z,100673.09
2023-02-22T04:15:08.561Z,100692.81
2023-02-22T04:17:35.079Z,100642.06
2023-02-22T04:20:02.317Z,100663.44
2023-02-22T04:22:28.727Z,100669.50
2023-02-22T04:24:55.102Z,100612.47
2023-02-22T04:27:21.524Z,100479.69
2023-02-22T04:29:48.041Z,100556.31
2023-02-22T04:32:16.882Z,100667.63
2023-02-22T04:34:43.317Z,100567.50
2023-02-22T04:37:10.395Z,100633.84
2023-02-22T04:39:36.840Z,100459.91
2023-02-22T04:42:03.502Z,100634.94
2023-02-22T04:44:29.962Z,100513.47
2023-02-22T04:46:57.423Z,100627.38
2023-02-22T04:49:24.629Z,100588.44
2023-02-22T04:51:55.607Z,100529.78
2023-02-22T04:54:22.117Z,100608.09
2023-02-22T04:56:48.563Z,100605.56
2023-02-22T04:59:15.404Z,100496.19
2023-02-22T05:01:42.970Z,100623.66
2023-02-22T05:04:09.394Z,100513.69
2023-02-22T05:06:38.855Z,100601.28
2023-02-22T05:09:08.318Z,100541.72
2023-02-22T05:11:38.121Z,100451.38
2023-02-22T05:14:04.562Z,100539.44
2023-02-22T05:16:31.127Z,100636.91
2023-02-22T05:18:57.605Z,100608.22
2023-02-22T05:21:24.092Z,100597.75
2023-02-22T05:23:50.514Z,100542.53
2023-02-22T05:26:16.901Z,100566.81
2023-02-22T05:28:43.392Z,100628.91
2023-02-22T05:31:09.903Z,100618.69
2023-02-22T05:33:36.595Z,100612.72
2023-02-22T05:36:03.100Z,100609.22
2023-02-22T05:38:29.783Z,100550.84
2023-02-22T05:40:56.938Z,100398.00
2023-02-22T05:43:23.373Z,100539.28
2023-02-22T05:45:49.815Z,100575.44
2023-02-22T05:48:16.296Z,100608.19
2023-02-22T05:50:43.910Z,100548.75
2023-02-22T05:53:10.374Z,100422.44
2023-02-22T05:55:36.815Z,100487.44
2023-02-22T05:58:05.794Z,100445.44
2023-02-22T06:00:32.793Z,100477.19
2023-02-22T06:03:10.444Z,100594.25
2023-02-22T06:05:37.476Z,100570.41
2023-02-22T06:08:06.094Z,100430.66
2023-02-22T06:10:33.268Z,100540.13
2023-02-22T06:13:01.601Z,100506.22
2023-02-22T06:15:28.983Z,100509.75
2023-02-22T06:17:56.552Z,100577.84
2023-02-22T06:20:24.911Z,100474.59
2023-02-22T06:22:52.976Z,100580.91
2023-02-22T06:25:22.289Z,100592.66
2023-02-22T06:27:48.689Z,100385.75
2023-02-22T06:30:17.577Z,100492.81
2023-02-22T06:32:44.118Z,100585.72
2023-02-22T06:35:10.577Z,100582.13
2023-02-22T06:37:38.559Z,100447.03
2023-02-22T06:40:05.946Z,100551.59
2023-02-22T06:42:32.631Z,100550.66
2023-02-22T06:44:58.987Z,100582.38
2023-02-22T06:47:25.326Z,100549.66
2023-02-22T06:49:56.610Z,100561.00
2023-02-22T06:52:23.605Z,100498.88
2023-02-22T06:54:50.702Z,100435.16
2023-02-22T06:57:17.931Z,100543.97
2023-02-22T06:59:44.770Z,100573.84
2023-02-22T07:02:12.204Z,100542.66
2023-02-22T07:04:39.649Z,100588.28
2023-02-22T07:07:07.503Z,100562.34
2023-02-22T07:09:34.053Z,100578.66
2023-02-22T07:12:00.391Z,100514.81
2023-02-22T07:14:27.226Z,100584.84
2023-02-22T07:16:53.554Z,100546.16
2023-02-22T07:19:20.703Z,100461.47
2023-02-22T07:21:47.955Z,100571.72
2023-02-22T07:24:14.328Z,100477.78
2023-02-22T07:26:42.401Z,100454.53
2023-02-22T07:29:08.772Z,100540.44
2023-02-22T07:31:36.500Z,100554.44
2023-02-22T07:34:02.984Z,100564.69
2023-02-22T07:36:29.450Z,100540.44
2023-02-22T07:38:55.977Z,100561.25
2023-02-22T07:41:23.017Z,100528.59
2023-02-22T07:43:49.454Z,100542.09
2023-02-22T07:46:15.778Z,100466.47
2023-02-22T07:48:42.181Z,100442.31
2023-02-22T07:51:09.813Z,100526.63
2023-02-22T07:53:36.532Z,100530.03
2023-02-22T07:56:05.683Z,100545.50
2023-02-22T07:58:33.161Z,100570.34
2023-02-22T08:01:01.951Z,100515.06
2023-02-22T08:03:36.316Z,100556.22
2023-02-22T08:06:04.264Z,100557.00
2023-02-22T08:08:30.733Z,100532.88
2023-02-22T08:10:57.190Z,100503.59
2023-02-22T08:13:24.449Z,100449.56
2023-02-22T08:15:53.523Z,100549.28
2023-02-22T08:18:21.202Z,100525.06
2023-02-22T08:20:49.249Z,100544.78
2023-02-22T08:23:16.723Z,100540.38
2023-02-22T08:25:43.072Z,100521.47
2023-02-22T08:28:12.041Z,100546.47
2023-02-22T08:30:40.562Z,100516.41
2023-02-22T08:33:07.413Z,100484.34
2023-02-22T08:35:34.197Z,100523.97
2023-02-22T08:38:03.312Z,100536.00
2023-02-22T08:40:32.367Z,100520.44
2023-02-22T08:42:59.260Z,100525.53
2023-02-22T08:45:25.647Z,100538.38
2023-02-22T08:47:51.998Z,100520.31
2023-02-22T08:50:27.737Z,100548.41
2023-02-22T08:52:56.363Z,100527.69
2023-02-22T08:55:24.340Z,100503.34
2023-02-22T08:57:50.762Z,100495.75
2023-02-22T09:00:19.525Z,100543.59
2023-02-22T09:02:46.028Z,100476.41
2023-02-22T09:05:12.480Z,100501.97
2023-02-22T09:07:42.353Z,100508.78
2023-02-22T09:10:15.345Z,100524.03
2023-02-22T09:12:42.227Z,100530.88
2023-02-22T09:15:09.735Z,100520.28
2023-02-22T09:17:38.961Z,100502.22
2023-02-22T09:20:07.095Z,100504.72
2023-02-22T09:22:33.530Z,100487.47
2023-02-22T09:25:02.585Z,100533.63
2023-02-22T09:27:34.289Z,100504.94
2023-02-22T09:30:00.717Z,100485.03
2023-02-22T09:32:28.055Z,100434.94
2023-02-22T09:34:55.601Z,100527.47
2023-02-22T09:37:22.519Z,100427.59
2023-02-22T09:39:49.105Z,100485.69
2023-02-22T09:42:29.223Z,100405.44
2023-02-22T09:45:12.746Z,100524.03
2023-02-22T09:47:46.536Z,100512.50
2023-02-22T09:50:25.004Z,100507.97
2023-02-22T09:53:00.108Z,100383.09
2023-02-22T09:55:41.124Z,100360.28
2023-02-22T09:58:26.396Z,100433.94
2023-02-22T10:01:00.972Z,100299.78
2023-02-22T10:03:50.727Z,100424.03
2023-02-22T10:06:23.250Z,100493.16
2023-02-22T10:08:56.306Z,100431.16
2023-02-22T10:11:45.319Z,100490.59
2023-02-22T10:14:47.368Z,100481.41
2023-02-22T10:17:22.844Z,100484.38
2023-02-22T10:20:07.353Z,100487.44
2023-02-22T10:22:59.143Z,100476.53
2023-02-22T10:25:28.473Z,100423.13
2023-02-22T10:28:06.423Z,100481.06
2023-02-22T10:30:38.199Z,100473.91
2023-02-22T10:33:17.084Z,100459.88
2023-02-22T10:35:46.987Z,100449.06
2023-02-22T10:38:24.265Z,100460.41
2023-02-22T10:40:56.113Z,100459.13
2023-02-22T10:43:23.492Z,100459.66
2023-02-22T10:45:55.707Z,100425.25
2023-02-22T10:48:26.225Z,100324.44
2023-02-22T10:50:57.225Z,100363.34
2023-02-22T10:53:23.584Z,100324.63
2023-02-22T10:56:12.649Z,100455.56
2023-02-22T10:59:00.491Z,100470.34
2023-02-22T11:01:32.971Z,100457.06
2023-02-22T11:04:18.437Z,100456.84
2023-02-22T11:06:48.484Z,100421.63
2023-02-22T11:09:17.904Z,100440.97
2023-02-22T11:11:46.719Z,100449.00
2023-02-22T11:14:26.443Z,100455.66
2023-02-22T11:16:56.745Z,100256.81
2023-02-22T11:19:28.000Z,100455.66
2023-02-22T11:22:25.059Z,100434.47
2023-02-22T11:24:56.043Z,100434.47
2023-02-22T11:27:28.550Z,100415.50
2023-02-22T11:30:21.184Z,100363.56
2023-02-22T11:32:53.354Z,100312.69
2023-02-22T11:35:35.633Z,100385.44
2023-02-22T11:38:29.776Z,100439.63
2023-02-22T11:41:22.915Z,100421.13
2023-02-22T11:43:51.935Z,100439.19
2023-02-22T11:46:22.279Z,100423.97
2023-02-22T11:49:10.949Z,100433.81
2023-02-22T11:52:03.180Z,100426.63
2023-02-22T11:54:57.817Z,100432.19
2023-02-22T11:58:00.269Z,100425.47
2023-02-22T12:00:53.873Z,100430.13
2023-02-22T12:03:51.606Z,100423.88
2023-02-22T12:06:51.614Z,100428.72
2023-02-22T12:09:40.683Z,100422.88
2023-02-22T12:12:17.369Z,100382.56
2023-02-22T12:15:15.603Z,100259.06
2023-02-22T12:18:00.803Z,100376.88
2023-02-22T12:20:37.556Z,100409.34
2023-02-22T12:23:14.230Z,100274.97
2023-02-22T12:25:51.905Z,100408.16
2023-02-22T12:28:25.112Z,100388.66
2023-02-22T12:31:03.517Z,100406.97
2023-02-22T12:33:41.439Z,100327.16
2023-02-22T12:36:14.842Z,100275.63
2023-02-22T12:38:46.761Z,100377.47
2023-02-22T12:41:22.457Z,100303.88
2023-02-22T12:44:12.667Z,100383.72
2023-02-22T12:46:46.566Z,100371.63
2023-02-22T12:49:36.472Z,100411.91
2023-02-22T12:52:41.477Z,100388.34
2023-02-22T12:55:23.126Z,100340.31
2023-02-22T12:58:14.813Z,100405.84
2023-02-22T13:00:50.806Z,100419.16
2023-02-22T13:03:35.616Z,100415.66
2023-02-22T13:06:08.209Z,100406.59
2023-02-22T13:08:45.744Z,100362.19
2023-02-22T13:11:27.933Z,100307.53
2023-02-22T13:14:24.026Z,100383.53
2023-02-22T13:17:10.415Z,100323.28
2023-02-22T13:19:46.187Z,100328.41
2023-02-22T13:22:32.801Z,100391.28
2023-02-22T13:25:40.538Z,100332.91
2023-02-22T13:28:35.783Z,100369.19
2023-02-22T13:31:30.040Z,100402.22
2023-02-22T13:34:40.198Z,100378.00
2023-02-22T13:48:35.322Z,100358.44
2023-02-22T13:56:06.167Z,100220.41
2023-02-22T14:13:55.715Z,100375.78
2023-02-22T14:16:27.621Z,100325.94
2023-02-22T14:19:02.315Z,100277.25
2023-02-22T14:21:28.965Z,100320.28
2023-02-22T14:24:05.628Z,100370.50
2023-02-22T14:26:40.463Z,100333.41
2023-02-22T14:29:31.519Z,100253.63
2023-02-22T14:32:15.531Z,100285.28
2023-02-22T14:34:48.983Z,100410.38
2023-02-22T14:37:24.823Z,100240.34
2023-02-22T14:39:58.409Z,100350.28
2023-02-22T14:42:27.943Z,100400.03
2023-02-22T14:45:00.406Z,100254.44
2023-02-22T14:47:45.891Z,100387.75
2023-02-22T14:50:44.840Z,100298.25
2023-02-22T14:53:23.276Z,100401.97
2023-02-22T14:55:58.733Z,100417.28
2023-02-22T14:58:57.799Z,100382.09
2023-02-22T15:01:44.292Z,100380.03
2023-02-22T15:04:21.855Z,100407.72
2023-02-22T15:06:49.596Z,100329.91
2023-02-22T15:09:28.950Z,100313.94
2023-02-22T15:12:05.198Z,100420.44
2023-02-22T15:14:38.192Z,100358.66
2023-02-22T15:17:12.419Z,100383.00
2023-02-22T15:19:41.235Z,100332.19
2023-02-22T15:22:25.628Z,100238.13
2023-02-22T15:28:46.755Z,100415.03
2023-02-22T15:31:21.236Z,100341.25
2023-02-22T15:33:53.373Z,100238.34
2023-02-22T15:36:21.354Z,100175.28
2023-02-22T15:38:53.349Z,100429.06
2023-02-22T15:41:32.416Z,100311.81
2023-02-22T15:44:47.047Z,100315.38
2023-02-22T15:47:23.397Z,100180.59
2023-02-22T15:53:32.426Z,100332.88
2023-02-22T15:56:04.012Z,100265.84
2023-02-22T15:58:37.961Z,100311.41
2023-02-22T16:01:19.107Z,100320.50
2023-02-22T16:03:59.008Z,100432.22
2023-02-22T16:06:44.149Z,100215.16
2023-02-22T16:09:24.879Z,100162.84
2023-02-22T16:12:09.305Z,100310.06
2023-02-22T16:14:35.725Z,100434.13
2023-02-22T16:17:35.259Z,100425.91
2023-02-22T16:20:24.806Z,100441.16
2023-02-22T16:22:51.496Z,100366.97
2023-02-22T16:25:17.874Z,100438.06
2023-02-22T16:28:54.343Z,100442.59
2023-02-22T16:31:25.105Z,100438.44
2023-02-22T16:33:55.131Z,100362.63
2023-02-22T16:36:37.204Z,100324.69
2023-02-22T16:39:12.744Z,100376.44
2023-02-22T16:41:39.343Z,100369.63
2023-02-22T16:44:07.943Z,100436.94
2023-02-22T16:46:35.112Z,100404.94
2023-02-22T16:49:05.086Z,100243.19
2023-02-22T16:51:55.285Z,100328.00
2023-02-22T16:54:36.797Z,100465.34
2023-02-22T16:57:34.737Z,100216.22
2023-02-22T17:01:11.041Z,100290.34
2023-02-22T17:04:08.529Z,100463.00
2023-02-22T17:06:37.241Z,100350.06
2023-02-22T17:09:08.981Z,100369.81
2023-02-22T17:12:23.556Z,100341.16
2023-02-22T17:14:56.565Z,100253.97
2023-02-22T17:17:23.315Z,100424.56
2023-02-22T17:19:57.553Z,100343.16
2023-02-22T17:22:24.188Z,100356.66
2023-02-22T17:24:50.724Z,100319.25
2023-02-22T17:31:00.805Z,100382.59
2023-02-22T17:33:33.384Z,100295.25
2023-02-22T17:38:56.749Z,100357.31
2023-02-22T17:41:23.364Z,100340.88
2023-02-22T17:43:50.664Z,100433.94
2023-02-22T17:46:19.758Z,100429.28
2023-02-22T17:48:48.269Z,100279.66
2023-02-22T17:51:14.676Z,100394.03
2023-02-22T17:53:41.114Z,100433.75
2023-02-22T17:56:10.285Z,100508.19
2023-02-22T17:58:37.224Z,100406.13
2023-02-22T18:01:04.208Z,100425.22
2023-02-22T18:03:33.655Z,100487.53
2023-02-22T18:06:01.514Z,100482.56
2023-02-22T18:08:30.997Z,100519.38
2023-02-22T18:10:57.522Z,100455.84
2023-02-22T18:13:26.987Z,100354.53
2023-02-22T18:15:59.852Z,100388.78
2023-02-22T18:18:26.760Z,100507.34
2023-02-22T18:20:59.357Z,100486.75
2023-02-22T18:23:27.862Z,100510.53
2023-02-22T18:26:09.775Z,100520.13
2023-02-22T18:28:38.055Z,100446.78
2023-02-22T18:31:15.722Z,100317.13
2023-02-22T18:33:44.203Z,100507.88
2023-02-22T18:36:14.414Z,100520.97
2023-02-22T18:38:46.117Z,100363.13
2023-02-22T18:41:15.293Z,100383.88
2023-02-22T18:43:42.636Z,100416.25
2023-02-22T18:46:18.820Z,100449.81
2023-02-22T18:48:47.174Z,100491.53
2023-02-22T18:51:18.239Z,100512.25
2023-02-22T18:53:47.544Z,100332.44
2023-02-22T18:56:17.854Z,100519.16
2023-02-22T18:58:44.546Z,100472.00
2023-02-22T19:01:18.583Z,100299.53
2023-02-22T19:03:47.103Z,100458.78
2023-02-22T19:06:16.776Z,100498.41
2023-02-22T19:08:44.897Z,100507.63
2023-02-22T19:11:17.794Z,100362.50
2023-02-22T19:13:48.801Z,100408.84
2023-02-22T19:16:19.822Z,100526.63
2023-02-22T19:18:48.551Z,100345.38
2023-02-22T19:21:15.998Z,100537.78
2023-02-22T19:23:45.621Z,100545.00
2023-02-22T19:26:13.960Z,100514.75
2023-02-22T19:28:40.354Z,100436.19
2023-02-22T19:31:18.577Z,100518.94
2023-02-22T19:33:47.646Z,100516.56
2023-02-22T19:36:17.006Z,100537.94
2023-02-22T19:38:43.949Z,100506.00
2023-02-22T19:41:26.727Z,100528.25
2023-02-22T19:43:53.800Z,100485.44
2023-02-22T19:46:21.310Z,100499.03
2023-02-22T19:48:48.930Z,100485.44
2023-02-22T19:51:17.921Z,100485.34
2023-02-22T19:53:45.092Z,100518.44
2023-02-22T19:56:16.171Z,100527.63
2023-02-22T19:58:44.578Z,100325.94
2023-02-22T20:01:16.393Z,100408.22
2023-02-22T20:03:43.814Z,100462.25
2023-02-22T20:06:11.479Z,100490.06
2023-02-22T20:08:42.175Z,100534.00
2023-02-22T20:11:10.465Z,100544.56
2023-02-22T20:16:18.727Z,100386.25
2023-02-22T20:18:46.562Z,100516.72
2023-02-22T20:21:21.717Z,100406.72
2023-02-22T20:23:48.354Z,100518.75
2023-02-22T20:26:22.266Z,100491.41
2023-02-22T20:28:49.524Z,100494.47
2023-02-22T20:31:16.992Z,100535.06
2023-02-22T20:33:45.668Z,100446.72
2023-02-22T20:36:19.443Z,100454.53
2023-02-22T20:38:48.878Z,100352.91
2023-02-22T20:41:21.632Z,100514.44
2023-02-22T20:43:52.565Z,100471.22
2023-02-22T20:46:19.288Z,100514.53
2023-02-22T20:48:45.965Z,100526.19
2023-02-22T20:51:15.955Z,100379.31
2023-02-22T20:53:44.819Z,100465.22
2023-02-22T20:56:16.696Z,100503.88
2023-02-22T20:58:43.702Z,100486.03
2023-02-22T21:01:12.591Z,100555.47
2023-02-22T21:03:39.599Z,100563.25
2023-02-22T21:06:06.669Z,100516.72
2023-02-22T21:08:33.223Z,100523.69
2023-02-22T21:11:01.946Z,100400.16
2023-02-22T21:13:28.402Z,100355.13
2023-02-22T21:15:54.778Z,100499.88
2023-02-22T21:18:23.346Z,100520.31
2023-02-22T21:20:51.056Z,100437.97
2023-02-22T21:23:19.943Z,100487.91
2023-02-22T21:25:51.536Z,100542.91
2023-02-22T21:28:17.984Z,100424.44
2023-02-22T21:30:45.666Z,100379.88
2023-02-22T21:33:13.055Z,100548.09
2023-02-22T21:35:42.202Z,100395.44
2023-02-22T21:38:14.507Z,100542.19
2023-02-22T21:40:42.669Z,100516.41
2023-02-22T21:43:19.195Z,100427.75
2023-02-22T21:45:58.490Z,100560.44
2023-02-22T21:48:26.639Z,100348.88
2023-02-22T21:50:54.072Z,100404.00
2023-02-22T21:53:20.590Z,100465.00
2023-02-22T21:55:47.062Z,100482.88
2023-02-22T21:58:13.451Z,100391.38
2023-02-22T22:00:42.740Z,100471.03
2023-02-22T22:03:20.394Z,100495.78
2023-02-22T22:05:49.425Z,100424.38
2023-02-22T22:08:22.218Z,100417.16
2023-02-22T22:10:55.408Z,100526.63
2023-02-22T22:13:25.276Z,100311.56
2023-02-22T22:15:51.941Z,100339.09
2023-02-22T22:18:21.808Z,100422.44
2023-02-22T22:20:52.906Z,100413.91
2023-02-22T22:23:24.608Z,100512.06
2023-02-22T22:25:52.766Z,100414.06
2023-02-22T22:28:25.206Z,100494.88
2023-02-22T22:30:51.722Z,100427.06
2023-02-22T22:33:18.188Z,100469.94
2023-02-22T22:35:44.893Z,100473.97
2023-02-22T22:38:11.514Z,100391.50
2023-02-22T22:40:38.922Z,100305.66
2023-02-22T22:43:05.978Z,100468.97
2023-02-22T22:45:32.815Z,100428.50
2023-02-22T22:47:59.184Z,100529.09
2023-02-22T22:50:26.464Z,100437.09
2023-02-22T22:52:55.532Z,100539.25
2023-02-22T22:55:24.196Z,100500.56
2023-02-22T22:57:56.155Z,100398.38
2023-02-22T23:00:37.336Z,100518.88
2023-02-22T23:03:05.578Z,100343.75
2023-02-22T23:05:37.295Z,100460.47
2023-02-22T23:08:04.991Z,100350.50
2023-02-22T23:10:33.045Z,100359.09
2023-02-22T23:12:59.502Z,100529.00
2023-02-22T23:15:26.141Z,100425.06
2023-02-22T23:17:56.175Z,100453.59
2023-02-22T23:20:26.126Z,100532.69
2023-02-22T23:22:54.430Z,100529.81
2023-02-22T23:25:21.631Z,100407.78
2023-02-22T23:27:49.255Z,100545.38
2023-02-22T23:30:18.513Z,100526.53
2023-02-22T23:32:49.324Z,100516.28
2023-02-22T23:35:18.866Z,100379.72
2023-02-22T23:37:50.044Z,100367.94
2023-02-22T23:40:16.848Z,100539.47
2023-02-22T23:42:49.907Z,100420.94
2023-02-22T23:45:27.298Z,100548.97
2023-02-22T23:47:56.100Z,100548.97
2023-02-22T23:50:27.113Z,100527.63
2023-02-22T23:52:59.113Z,100556.91
2023-02-22T23:55:31.573Z,100539.84
2023-02-22T23:57:59.663Z,100533.03
